createdAt,value
2023-04-26T00:01:10.420Z,75.24
2023-04-26T00:03:38.215Z,74.98
2023-04-26T00:06:05.822Z,75.50
2023-04-26T00:08:32.869Z,75.20
2023-04-26T00:10:59.475Z,75.38
2023-04-26T00:13:26.270Z,75.18
2023-04-26T00:15:53.271Z,75.33
2023-04-26T00:18:19.970Z,75.39
2023-04-26T00:20:46.550Z,75.72
2023-04-26T00:23:13.349Z,75.27
2023-04-26T00:25:40.531Z,75.79
2023-04-26T00:28:07.098Z,75.26
2023-04-26T00:30:39.350Z,75.58
2023-04-26T00:33:05.901Z,75.29
2023-04-26T00:35:32.657Z,75.79
2023-04-26T00:38:01.508Z,76.00
2023-04-26T00:40:31.156Z,75.84
2023-04-26T00:43:02.712Z,75.91
2023-04-26T00:45:29.436Z,76.10
2023-04-26T00:47:56.949Z,76.30
2023-04-26T00:50:23.834Z,75.63
2023-04-26T00:52:51.078Z,76.40
2023-04-26T00:55:19.319Z,76.46
2023-04-26T00:57:46.512Z,76.76
2023-04-26T01:00:13.708Z,76.57
2023-04-26T01:02:41.863Z,76.52
2023-04-26T01:05:09.506Z,76.96
2023-04-26T01:07:37.641Z,77.37
2023-04-26T01:10:05.798Z,77.03
2023-04-26T01:12:33.337Z,77.19
2023-04-26T01:15:01.524Z,77.88
2023-04-26T01:17:40.613Z,77.58
2023-04-26T01:20:10.772Z,77.49
2023-04-26T01:22:37.707Z,77.10
2023-04-26T01:25:07.724Z,77.71
2023-04-26T01:27:36.935Z,78.03
2023-04-26T01:32:47.121Z,77.16
2023-04-26T01:35:14.364Z,77.85
2023-04-26T01:37:41.454Z,77.50
2023-04-26T01:40:08.969Z,78.19
2023-04-26T01:42:35.819Z,77.66
2023-04-26T01:45:02.609Z,78.24
2023-04-26T01:47:29.198Z,78.14
2023-04-26T01:49:56.114Z,78.40
2023-04-26T01:52:23.330Z,78.26
2023-04-26T01:54:49.826Z,77.95
2023-04-26T01:57:19.608Z,77.75
2023-04-26T01:59:46.110Z,77.67
2023-04-26T02:02:12.668Z,77.63
2023-04-26T02:04:39.349Z,78.22
2023-04-26T02:07:06.807Z,77.99
2023-04-26T02:09:33.461Z,77.90
2023-04-26T02:12:00.176Z,78.22
2023-04-26T02:14:27.085Z,77.58
2023-04-26T02:16:53.940Z,77.69
2023-04-26T02:19:21.046Z,78.53
2023-04-26T02:21:56.032Z,78.80
2023-04-26T02:24:23.518Z,77.99
2023-04-26T02:26:50.711Z,78.38
2023-04-26T02:29:17.624Z,78.28
2023-04-26T02:31:44.317Z,78.67
2023-04-26T02:34:10.861Z,78.18
2023-04-26T02:36:37.318Z,78.26
2023-04-26T02:39:04.003Z,78.90
2023-04-26T02:41:33.017Z,79.01
2023-04-26T02:44:10.276Z,79.03
2023-04-26T02:46:36.868Z,78.92
2023-04-26T02:49:03.362Z,78.93
2023-04-26T02:51:29.800Z,78.70
2023-04-26T02:53:56.375Z,78.71
2023-04-26T02:56:23.304Z,79.16
2023-04-26T02:58:50.656Z,79.39
2023-04-26T03:01:18.980Z,79.64
2023-04-26T03:03:47.349Z,79.03
2023-04-26T03:09:45.332Z,78.93
2023-04-26T03:15:14.000Z,78.79
2023-04-26T03:17:48.925Z,78.60
2023-04-26T03:20:15.412Z,79.17
2023-04-26T03:22:47.854Z,79.41
2023-04-26T03:25:16.194Z,78.84
2023-04-26T03:27:42.895Z,78.59
2023-04-26T03:30:09.819Z,79.77
2023-04-26T03:32:36.616Z,79.30
2023-04-26T03:35:03.204Z,79.04
2023-04-26T03:37:33.599Z,79.54
2023-04-26T03:40:00.194Z,79.59
2023-04-26T03:42:27.547Z,79.58
2023-04-26T03:44:54.777Z,79.70
2023-04-26T03:47:21.487Z,79.26
2023-04-26T03:49:48.144Z,79.09
2023-04-26T03:52:14.833Z,79.13
2023-04-26T03:54:41.655Z,79.36
2023-04-26T03:57:08.388Z,79.78
2023-04-26T03:59:35.457Z,79.51
2023-04-26T04:02:03.629Z,79.46
2023-04-26T04:04:30.330Z,79.91
2023-04-26T04:06:57.000Z,79.79
2023-04-26T04:09:24.118Z,79.22
2023-04-26T04:11:52.895Z,79.37
2023-04-26T04:14:24.665Z,79.65
2023-04-26T04:16:55.068Z,79.39
2023-04-26T04:19:24.667Z,79.60
2023-04-26T04:21:52.479Z,79.92
2023-04-26T04:24:22.823Z,80.22
2023-04-26T04:26:50.177Z,80.21
2023-04-26T04:29:16.790Z,80.11
2023-04-26T04:31:44.057Z,80.76
2023-04-26T04:34:10.724Z,80.37
2023-04-26T04:36:39.010Z,80.21
2023-04-26T04:39:09.856Z,80.76
2023-04-26T04:41:37.101Z,80.50
2023-04-26T04:44:04.912Z,80.45
2023-04-26T04:46:32.240Z,80.93
2023-04-26T04:49:04.853Z,81.21
2023-04-26T04:51:33.183Z,81.07
2023-04-26T04:54:02.485Z,80.60
2023-04-26T04:59:39.067Z,80.53
2023-04-26T05:02:05.595Z,81.29
2023-04-26T05:04:35.186Z,81.17
2023-04-26T05:07:12.894Z,80.84
2023-04-26T05:09:42.212Z,81.16
2023-04-26T05:12:10.714Z,81.09
2023-04-26T05:14:40.853Z,81.06
2023-04-26T05:17:11.568Z,81.06
2023-04-26T05:19:47.343Z,81.35
2023-04-26T05:22:18.292Z,81.53
2023-04-26T05:24:47.189Z,81.25
2023-04-26T05:27:14.605Z,81.07
2023-04-26T05:29:41.856Z,81.77
2023-04-26T05:32:08.602Z,81.71
2023-04-26T05:34:35.453Z,81.85
2023-04-26T05:37:03.854Z,81.61
2023-04-26T05:45:01.308Z,81.46
2023-04-26T05:47:30.977Z,81.33
2023-04-26T05:49:57.469Z,81.57
2023-04-26T05:52:24.267Z,81.62
2023-04-26T05:54:54.074Z,81.84
2023-04-26T05:57:22.176Z,81.50
2023-04-26T05:59:48.796Z,81.26
2023-04-26T06:02:15.739Z,81.46
2023-04-26T06:49:16.220Z,77.56
2023-04-26T06:51:46.294Z,76.78
2023-04-26T06:54:17.984Z,76.48
2023-04-26T06:56:53.244Z,75.39
2023-04-26T06:59:27.099Z,75.04
2023-04-26T07:01:56.683Z,73.92
2023-04-26T07:04:23.509Z,73.46
2023-04-26T07:06:50.609Z,73.26
2023-04-26T07:09:17.486Z,73.09
2023-04-26T07:11:47.144Z,72.60
2023-04-26T07:14:13.637Z,72.32
2023-04-26T07:16:48.847Z,71.74
2023-04-26T07:43:47.370Z,69.28
2023-04-26T07:47:03.682Z,68.65
2023-04-26T07:49:30.203Z,67.45
2023-04-26T07:51:58.200Z,66.87
2023-04-26T07:54:24.674Z,66.65
2023-04-26T07:56:51.141Z,67.26
2023-04-26T07:59:25.392Z,66.42
2023-04-26T08:01:52.059Z,66.54
2023-04-26T08:04:33.783Z,66.79
2023-04-26T08:07:04.151Z,65.24
2023-04-26T08:09:30.885Z,65.99
2023-04-26T08:11:58.603Z,64.05
2023-04-26T08:14:25.188Z,64.27
2023-04-26T08:16:51.862Z,62.88
2023-04-26T08:19:18.450Z,62.91
2023-04-26T08:21:44.996Z,62.47
2023-04-26T08:24:29.384Z,62.06
2023-04-26T08:27:49.467Z,60.73
2023-04-26T08:38:42.490Z,61.21
2023-04-26T08:41:14.733Z,59.68
2023-04-26T08:43:41.533Z,60.63
2023-04-26T08:46:16.368Z,60.36
2023-04-26T08:52:29.011Z,62.13
2023-04-26T08:55:03.659Z,61.17
2023-04-26T08:57:33.644Z,62.21
2023-04-26T09:00:06.083Z,62.58
2023-04-26T09:02:36.951Z,63.23
2023-04-26T09:05:05.464Z,63.97
2023-04-26T09:08:18.436Z,64.41
2023-04-26T09:10:45.295Z,63.63
2023-04-26T09:13:13.316Z,64.10
2023-04-26T09:15:45.412Z,64.27
2023-04-26T09:18:23.150Z,64.43
2023-04-26T09:21:26.666Z,62.94
2023-04-26T09:24:15.060Z,63.04
2023-04-26T09:32:23.256Z,61.70
2023-04-26T09:49:04.254Z,61.04
2023-04-26T10:20:57.667Z,54.71
2023-04-26T10:23:34.196Z,55.15
2023-04-26T10:26:01.745Z,54.26
2023-04-26T10:29:01.721Z,56.39
2023-04-26T10:32:24.416Z,53.05
2023-04-26T10:35:25.290Z,53.91
2023-04-26T10:38:01.041Z,54.40
2023-04-26T10:40:36.144Z,54.77
2023-04-26T10:43:11.524Z,54.43
2023-04-26T10:45:45.751Z,55.29
2023-04-26T10:48:28.079Z,55.15
2023-04-26T11:15:56.394Z,54.02
2023-04-26T11:18:25.751Z,54.08
2023-04-26T11:31:42.981Z,52.62
2023-04-26T11:52:27.829Z,50.25
2023-04-26T11:55:10.578Z,49.63
2023-04-26T11:57:47.309Z,48.72
2023-04-26T12:01:04.386Z,48.57
2023-04-26T12:03:41.722Z,48.83
2023-04-26T12:08:58.900Z,49.35
2023-04-26T12:11:34.177Z,47.41
2023-04-26T12:14:02.027Z,48.71
2023-04-26T12:18:59.942Z,49.72
2023-04-26T12:21:29.867Z,49.49
2023-04-26T12:23:59.083Z,50.11
2023-04-26T12:26:50.863Z,50.76
2023-04-26T12:30:20.727Z,50.14
2023-04-26T12:40:35.595Z,51.49
2023-04-26T12:46:52.926Z,51.58
2023-04-26T12:49:21.161Z,51.34
2023-04-26T12:51:50.808Z,51.03
2023-04-26T12:54:23.930Z,51.54
2023-04-26T12:56:50.933Z,52.48
2023-04-26T12:59:17.456Z,51.71
2023-04-26T13:01:43.862Z,51.32
2023-04-26T13:06:53.596Z,51.35
2023-04-26T13:09:48.505Z,51.79
2023-04-26T13:12:23.329Z,52.44
2023-04-26T13:24:01.015Z,51.88
2023-04-26T13:26:32.054Z,52.41
2023-04-26T13:28:58.994Z,52.38
2023-04-26T13:31:33.595Z,53.70
2023-04-26T13:41:48.832Z,54.39
2023-04-26T13:44:15.843Z,53.24
2023-04-26T13:46:43.234Z,53.73
2023-04-26T13:49:12.774Z,53.30
2023-04-26T13:51:39.329Z,54.30
2023-04-26T13:54:06.075Z,53.18
2023-04-26T13:57:02.874Z,53.79
2023-04-26T13:59:30.287Z,54.17
2023-04-26T14:02:00.868Z,54.22
2023-04-26T14:30:27.987Z,52.49
2023-04-26T14:48:11.083Z,50.33
2023-04-26T14:50:38.291Z,48.40
2023-04-26T14:53:04.796Z,48.63
2023-04-26T14:55:31.188Z,49.52
2023-04-26T14:57:58.114Z,51.78
2023-04-26T15:00:30.337Z,49.55
2023-04-26T15:02:59.673Z,49.94
2023-04-26T15:05:41.248Z,49.17
2023-04-26T15:08:07.930Z,49.18
2023-04-26T15:10:39.211Z,49.79
2023-04-26T15:13:10.107Z,49.80
2023-04-26T15:15:40.223Z,50.20
2023-04-26T15:18:17.031Z,50.34
2023-04-26T15:20:47.425Z,50.00
2023-04-26T15:23:36.379Z,50.46
2023-04-26T15:29:10.990Z,49.55
2023-04-26T15:31:41.745Z,49.52
2023-04-26T15:34:38.779Z,50.42
2023-04-26T15:37:28.912Z,50.43
2023-04-26T15:43:12.261Z,51.43
2023-04-26T15:45:38.710Z,51.80
2023-04-26T15:48:18.435Z,51.73
2023-04-26T15:50:49.380Z,52.55
2023-04-26T15:53:31.951Z,52.00
2023-04-26T15:56:00.496Z,51.60
2023-04-26T15:58:28.127Z,52.31
2023-04-26T16:00:55.422Z,50.59
2023-04-26T16:03:23.257Z,52.17
2023-04-26T16:06:10.595Z,50.89
2023-04-26T16:08:46.359Z,50.95
2023-04-26T16:11:17.930Z,52.01
2023-04-26T16:21:12.933Z,51.53
2023-04-26T16:23:42.198Z,51.85
2023-04-26T16:26:09.375Z,51.58
2023-04-26T16:28:36.242Z,52.17
2023-04-26T16:31:02.862Z,51.87
2023-04-26T16:33:29.813Z,53.41
2023-04-26T16:35:58.580Z,52.64
2023-04-26T16:38:25.206Z,53.01
2023-04-26T16:40:58.749Z,54.23
2023-04-26T16:43:30.257Z,54.11
2023-04-26T16:46:04.501Z,53.87
2023-04-26T16:48:32.724Z,53.97
2023-04-26T16:51:00.382Z,53.40
2023-04-26T16:53:27.120Z,53.10
2023-04-26T16:55:53.713Z,53.30
2023-04-26T16:58:21.471Z,52.98
2023-04-26T17:00:48.961Z,53.75
2023-04-26T17:03:39.263Z,53.73
2023-04-26T17:06:26.576Z,53.38
2023-04-26T17:09:01.024Z,53.62
2023-04-26T17:11:32.198Z,54.03
2023-04-26T17:14:04.135Z,53.29
2023-04-26T17:16:45.466Z,54.21
2023-04-26T17:19:14.567Z,53.98
2023-04-26T17:21:42.914Z,54.16
2023-04-26T17:24:10.915Z,54.15
2023-04-26T17:26:42.115Z,54.04
2023-04-26T17:29:13.003Z,54.16
2023-04-26T17:31:44.996Z,54.34
2023-04-26T17:34:21.534Z,54.79
2023-04-26T17:36:53.252Z,53.97
2023-04-26T17:39:19.826Z,54.58
2023-04-26T17:41:57.988Z,54.09
2023-04-26T17:44:31.070Z,53.57
2023-04-26T17:47:06.156Z,53.62
2023-04-26T17:49:33.491Z,54.07
2023-04-26T17:52:04.497Z,55.09
2023-04-26T18:04:19.417Z,55.22
2023-04-26T18:06:46.184Z,56.14
2023-04-26T18:11:47.938Z,56.43
2023-04-26T18:14:20.479Z,56.96
2023-04-26T18:16:47.156Z,56.51
2023-04-26T18:19:27.917Z,57.22
2023-04-26T18:22:27.254Z,57.01
2023-04-26T18:24:59.679Z,57.04
2023-04-26T18:27:26.046Z,57.35
2023-04-26T18:29:52.609Z,57.90
2023-04-26T18:32:19.261Z,58.16
2023-04-26T18:34:46.549Z,58.82
2023-04-26T18:37:12.911Z,59.01
2023-04-26T18:39:48.755Z,59.10
2023-04-26T18:42:15.226Z,59.07
2023-04-26T18:44:41.566Z,59.09
2023-04-26T18:47:07.983Z,59.62
2023-04-26T18:49:34.384Z,59.68
2023-04-26T18:52:01.582Z,59.69
2023-04-26T18:54:27.995Z,59.78
2023-04-26T18:56:54.484Z,59.85
2023-04-26T18:59:20.905Z,60.02
2023-04-26T19:01:49.026Z,60.00
2023-04-26T19:04:15.856Z,60.62
2023-04-26T19:06:42.283Z,60.95
2023-04-26T19:09:11.795Z,60.82
2023-04-26T19:11:38.429Z,60.94
2023-04-26T19:14:04.828Z,60.54
2023-04-26T19:16:35.295Z,61.64
2023-04-26T19:19:01.912Z,61.15
2023-04-26T19:21:28.307Z,61.51
2023-04-26T19:23:56.540Z,61.57
2023-04-26T19:26:22.931Z,61.83
2023-04-26T19:28:49.495Z,62.12
2023-04-26T19:31:15.921Z,61.40
2023-04-26T19:33:42.383Z,61.97
2023-04-26T19:36:09.668Z,62.23
2023-04-26T19:38:36.031Z,62.18
2023-04-26T19:41:02.452Z,62.60
2023-04-26T19:43:29.101Z,62.79
2023-04-26T19:45:55.473Z,63.04
2023-04-26T19:48:21.840Z,62.68
2023-04-26T19:50:48.191Z,63.30
2023-04-26T19:53:14.898Z,62.39
2023-04-26T19:55:42.294Z,62.58
2023-04-26T19:58:10.488Z,62.51
2023-04-26T20:00:38.108Z,62.55
2023-04-26T20:03:05.389Z,62.73
2023-04-26T20:05:32.162Z,62.96
2023-04-26T20:07:58.568Z,62.98
2023-04-26T20:10:25.056Z,63.44
2023-04-26T20:12:51.781Z,63.85
2023-04-26T20:15:18.202Z,63.00
2023-04-26T20:17:44.706Z,64.16
2023-04-26T20:20:12.613Z,64.05
2023-04-26T20:22:40.253Z,64.69
2023-04-26T20:25:07.274Z,65.22
2023-04-26T20:27:33.996Z,64.86
2023-04-26T20:30:00.548Z,64.81
2023-04-26T20:32:27.035Z,65.73
2023-04-26T20:34:53.582Z,65.98
2023-04-26T20:37:19.982Z,66.15
2023-04-26T20:39:46.388Z,66.60
2023-04-26T20:42:12.946Z,66.76
2023-04-26T20:44:39.285Z,67.06
2023-04-26T20:47:05.932Z,66.93
2023-04-26T20:49:32.329Z,67.32
2023-04-26T20:51:58.704Z,67.78
2023-04-26T20:54:25.123Z,68.32
2023-04-26T20:56:51.585Z,68.43
2023-04-26T20:59:18.195Z,68.36
2023-04-26T21:01:44.558Z,68.91
2023-04-26T21:04:11.181Z,69.17
2023-04-26T21:06:37.863Z,69.35
2023-04-26T21:09:05.210Z,69.40
2023-04-26T21:11:31.661Z,69.82
2023-04-26T21:13:58.801Z,69.73
2023-04-26T21:16:25.358Z,69.96
2023-04-26T21:18:52.715Z,70.28
2023-04-26T21:21:19.106Z,70.40
2023-04-26T21:23:45.477Z,70.51
2023-04-26T21:26:11.807Z,70.42
2023-04-26T21:28:38.149Z,70.86
2023-04-26T21:31:06.373Z,71.30
2023-04-26T21:33:33.701Z,70.84
2023-04-26T21:36:00.555Z,71.45
2023-04-26T21:38:27.249Z,71.16
2023-04-26T21:40:53.628Z,71.35
2023-04-26T21:43:21.522Z,71.07
2023-04-26T21:45:50.260Z,71.18
2023-04-26T21:48:16.850Z,71.79
2023-04-26T21:50:43.370Z,71.51
2023-04-26T21:53:09.943Z,71.56
2023-04-26T21:55:36.363Z,71.92
2023-04-26T21:58:05.449Z,72.72
2023-04-26T22:00:31.945Z,72.35
2023-04-26T22:02:58.621Z,72.57
2023-04-26T22:05:29.230Z,73.00
2023-04-26T22:07:56.050Z,73.08
2023-04-26T22:10:22.510Z,72.71
2023-04-26T22:12:48.956Z,73.16
2023-04-26T22:15:15.616Z,73.09
2023-04-26T22:17:42.087Z,73.21
2023-04-26T22:20:12.515Z,73.04
2023-04-26T22:22:39.364Z,73.35
2023-04-26T22:25:06.280Z,73.36
2023-04-26T22:27:32.877Z,74.06
2023-04-26T22:30:06.226Z,74.20
2023-04-26T22:32:35.813Z,73.79
2023-04-26T22:35:02.222Z,74.18
2023-04-26T22:37:28.607Z,73.99
2023-04-26T22:39:56.332Z,73.86
2023-04-26T22:42:22.781Z,74.06
2023-04-26T22:44:49.404Z,74.46
2023-04-26T22:47:18.382Z,74.23
2023-04-26T22:49:44.772Z,73.53
2023-04-26T22:52:20.209Z,73.55
2023-04-26T22:54:54.569Z,74.59
2023-04-26T22:57:21.379Z,74.30
2023-04-26T22:59:48.092Z,73.86
2023-04-26T23:02:15.419Z,73.65
2023-04-26T23:04:42.134Z,74.01
2023-04-26T23:07:08.678Z,74.66
2023-04-26T23:09:35.294Z,73.93
2023-04-26T23:12:03.400Z,74.39
2023-04-26T23:14:30.393Z,74.16
2023-04-26T23:16:58.682Z,74.95
2023-04-26T23:19:26.239Z,74.41
2023-04-26T23:21:53.043Z,74.22
2023-04-26T23:24:19.480Z,74.55
2023-04-26T23:26:46.006Z,74.60
2023-04-26T23:29:13.215Z,74.17
2023-04-26T23:31:39.924Z,75.04
2023-04-26T23:34:06.279Z,74.85
2023-04-26T23:36:33.341Z,74.88
2023-04-26T23:38:59.853Z,75.35
2023-04-26T23:41:26.314Z,74.95
2023-04-26T23:43:52.781Z,75.40
2023-04-26T23:46:19.253Z,75.60
2023-04-26T23:48:45.723Z,75.36
2023-04-26T23:51:12.114Z,75.16
2023-04-26T23:53:41.211Z,75.64
2023-04-26T23:56:07.735Z,74.83
2023-04-26T23:58:34.166Z,75.92
